Hlavní strana
METAR-TAF:

METAR-TAF

Letiště :

N'Djamena, Čad

zeměpisná šířka: 12-08N, zeměpisná délka: 015-02E, výška: 295 m

Aktuální stav počasí

Zpráva byla vytvořena před 2 hodinami a 37 minutami, v 10:00 UTC
Jihojihozápadní vítr 9 kt
Teplota 40°C
Vlhkost vzduchu 26%
Tlak 1009 hPa
Viditelnost: 6000 m

METAR: FTTJ 241000Z 21009KT 6000 NSC 40/17 Q1009 NOSIG

Čas: 13:37 (12:37 UTC)

Předpověď počasí

Zpráva byla vytvořena před 7 hodinami a 37 minutami, v 05:00 UTC
Předpověď platná od 24 v 06 UTC do 25 v 12 UTC
Jihozápadní vítr 8 kt
Viditelnost: 6000 m
Pravděpodobnost 40% :
Dočasný
od 24 v 14 UTC do 24 v 19 UTC
vítr z různých směrů 18 kt s nárazy do 35 kt
Viditelnost: 2000 m
zvířený prach, bouřka, déšť,

TAF: FTTJ 240500Z 2406/2512 22008KT 6000 NSC PROB40 TEMPO 2414/2419 VRB18G35KT 2000 BLDU TSRA

Stav a předpovědi počasí z více než 4 000 letišť (zprávy METAR a TAF).

Červené a žluté tečky na mapě představují dostupné meteorologické stanice.

Když kurzor umístíte na tečku, zobrazí se název stanice.

Pak kliknutím zobrazíte stav a předpověď počasí.

Chcete-li změnit mapu, kliknutím na zelené tlačítko se znaménkem +mapu přiblížíte, kliknutím na zelené tlačítko se znaménkem – mapu oddálíte a kliknutím na zelené šipky přejdete na sousední mapy.


METAR-TAF: